sensor_id;sensor_type;location;lat;lon;timestamp;P1;durP1;ratioP1;P2;durP2;ratioP2
80707;SDS011;70222;49.204;-122.940;2023-08-30T00:00:57;13.57;;;8.77;;
80707;SDS011;70222;49.204;-122.940;2023-08-30T00:03:23;10.75;;;6.47;;
80707;SDS011;70222;49.204;-122.940;2023-08-30T00:05:49;12.07;;;6.78;;
80707;SDS011;70222;49.204;-122.940;2023-08-30T00:08:15;13.10;;;8.00;;
80707;SDS011;70222;49.204;-122.940;2023-08-30T00:10:48;12.05;;;7.15;;
80707;SDS011;70222;49.204;-122.940;2023-08-30T00:13:14;11.75;;;7.32;;
80707;SDS011;70222;49.204;-122.940;2023-08-30T00:15:40;12.48;;;7.25;;
80707;SDS011;70222;49.204;-122.940;2023-08-30T00:18:06;10.98;;;7.47;;
80707;SDS011;70222;49.204;-122.940;2023-08-30T00:20:33;14.10;;;8.93;;
80707;SDS011;70222;49.204;-122.940;2023-08-30T00:22:59;12.50;;;7.53;;
80707;SDS011;70222;49.204;-122.940;2023-08-30T00:25:25;12.15;;;7.13;;
80707;SDS011;70222;49.204;-122.940;2023-08-30T00:27:51;11.88;;;7.70;;
80707;SDS011;70222;49.204;-122.940;2023-08-30T00:30:17;19.20;;;17.13;;
80707;SDS011;70222;49.204;-122.940;2023-08-30T00:32:43;10.98;;;8.43;;
80707;SDS011;70222;49.204;-122.940;2023-08-30T00:35:10;10.77;;;6.25;;
80707;SDS011;70222;49.204;-122.940;2023-08-30T00:37:36;12.18;;;7.18;;
80707;SDS011;70222;49.204;-122.940;2023-08-30T00:40:02;10.93;;;7.65;;
80707;SDS011;70222;49.204;-122.940;2023-08-30T00:42:28;10.00;;;6.55;;
80707;SDS011;70222;49.204;-122.940;2023-08-30T00:44:54;14.10;;;8.73;;
80707;SDS011;70222;49.204;-122.940;2023-08-30T00:47:21;17.88;;;14.05;;
80707;SDS011;70222;49.204;-122.940;2023-08-30T00:49:47;13.23;;;8.43;;
80707;SDS011;70222;49.204;-122.940;2023-08-30T00:52:13;10.07;;;6.05;;
80707;SDS011;70222;49.204;-122.940;2023-08-30T00:54:39;10.68;;;5.85;;
80707;SDS011;70222;49.204;-122.940;2023-08-30T00:57:05;9.60;;;5.55;;
80707;SDS011;70222;49.204;-122.940;2023-08-30T00:59:33;12.60;;;6.55;;
80707;SDS011;70222;49.204;-122.940;2023-08-30T01:01:59;9.38;;;6.22;;
80707;SDS011;70222;49.204;-122.940;2023-08-30T01:06:52;9.27;;;6.70;;
80707;SDS011;70222;49.204;-122.940;2023-08-30T01:09:18;11.05;;;6.72;;
80707;SDS011;70222;49.204;-122.940;2023-08-30T01:11:57;11.30;;;6.75;;
80707;SDS011;70222;49.204;-122.940;2023-08-30T01:17:19;11.15;;;6.45;;
80707;SDS011;70222;49.204;-122.940;2023-08-30T01:22:51;18.58;;;12.02;;
80707;SDS011;70222;49.204;-122.940;2023-08-30T01:28:19;19.20;;;13.50;;
80707;SDS011;70222;49.204;-122.940;2023-08-30T01:30:46;17.73;;;10.98;;
80707;SDS011;70222;49.204;-122.940;2023-08-30T01:33:14;13.38;;;8.43;;
80707;SDS011;70222;49.204;-122.940;2023-08-30T01:35:40;16.58;;;11.02;;
80707;SDS011;70222;49.204;-122.940;2023-08-30T01:38:07;13.05;;;7.85;;
80707;SDS011;70222;49.204;-122.940;2023-08-30T01:40:35;16.15;;;8.15;;
80707;SDS011;70222;49.204;-122.940;2023-08-30T01:43:03;12.45;;;7.47;;
80707;SDS011;70222;49.204;-122.940;2023-08-30T01:45:35;13.07;;;8.48;;
80707;SDS011;70222;49.204;-122.940;2023-08-30T01:48:03;12.80;;;8.18;;
80707;SDS011;70222;49.204;-122.940;2023-08-30T01:50:30;14.63;;;8.80;;
80707;SDS011;70222;49.204;-122.940;2023-08-30T01:52:57;17.40;;;11.63;;
80707;SDS011;70222;49.204;-122.940;2023-08-30T01:55:25;17.60;;;10.02;;
80707;SDS011;70222;49.204;-122.940;2023-08-30T01:57:52;16.77;;;8.65;;
80707;SDS011;70222;49.204;-122.940;2023-08-30T02:00:18;16.38;;;8.90;;
80707;SDS011;70222;49.204;-122.940;2023-08-30T02:02:45;16.77;;;8.88;;
80707;SDS011;70222;49.204;-122.940;2023-08-30T02:05:11;15.13;;;8.80;;
80707;SDS011;70222;49.204;-122.940;2023-08-30T02:10:10;27.88;;;19.67;;
80707;SDS011;70222;49.204;-122.940;2023-08-30T02:12:57;18.25;;;12.23;;
80707;SDS011;70222;49.204;-122.940;2023-08-30T02:15:25;30.02;;;23.13;;
80707;SDS011;70222;49.204;-122.940;2023-08-30T02:17:52;32.85;;;23.35;;
80707;SDS011;70222;49.204;-122.940;2023-08-30T02:20:19;26.08;;;17.17;;
80707;SDS011;70222;49.204;-122.940;2023-08-30T02:22:45;33.42;;;18.73;;
80707;SDS011;70222;49.204;-122.940;2023-08-30T02:25:12;16.88;;;10.10;;
80707;SDS011;70222;49.204;-122.940;2023-08-30T02:27:40;12.07;;;6.80;;
80707;SDS011;70222;49.204;-122.940;2023-08-30T02:30:06;12.52;;;6.80;;
80707;SDS011;70222;49.204;-122.940;2023-08-30T02:32:33;17.60;;;11.55;;
80707;SDS011;70222;49.204;-122.940;2023-08-30T02:34:59;19.33;;;12.45;;
80707;SDS011;70222;49.204;-122.940;2023-08-30T02:37:26;21.55;;;15.48;;
80707;SDS011;70222;49.204;-122.940;2023-08-30T02:39:52;14.98;;;9.57;;
80707;SDS011;70222;49.204;-122.940;2023-08-30T02:42:18;13.63;;;8.02;;
80707;SDS011;70222;49.204;-122.940;2023-08-30T02:44:44;11.65;;;6.60;;
80707;SDS011;70222;49.204;-122.940;2023-08-30T02:47:10;11.38;;;6.78;;
80707;SDS011;70222;49.204;-122.940;2023-08-30T02:49:36;11.13;;;6.20;;
80707;SDS011;70222;49.204;-122.940;2023-08-30T02:52:03;9.02;;;6.20;;
80707;SDS011;70222;49.204;-122.940;2023-08-30T02:54:29;10.18;;;6.32;;
80707;SDS011;70222;49.204;-122.940;2023-08-30T02:56:55;14.93;;;6.93;;
80707;SDS011;70222;49.204;-122.940;2023-08-30T02:59:21;10.77;;;6.50;;
80707;SDS011;70222;49.204;-122.940;2023-08-30T03:01:47;10.90;;;6.90;;
80707;SDS011;70222;49.204;-122.940;2023-08-30T03:04:13;11.77;;;7.13;;
80707;SDS011;70222;49.204;-122.940;2023-08-30T03:06:39;13.23;;;7.47;;
80707;SDS011;70222;49.204;-122.940;2023-08-30T03:09:05;13.77;;;7.38;;
80707;SDS011;70222;49.204;-122.940;2023-08-30T03:11:33;12.15;;;6.65;;
80707;SDS011;70222;49.204;-122.940;2023-08-30T03:13:59;12.15;;;7.18;;
80707;SDS011;70222;49.204;-122.940;2023-08-30T03:16:25;10.55;;;5.95;;
80707;SDS011;70222;49.204;-122.940;2023-08-30T03:18:51;12.63;;;6.68;;
80707;SDS011;70222;49.204;-122.940;2023-08-30T03:21:17;14.90;;;8.75;;
80707;SDS011;70222;49.204;-122.940;2023-08-30T03:23:43;25.45;;;15.55;;
80707;SDS011;70222;49.204;-122.940;2023-08-30T03:28:40;16.75;;;11.25;;
80707;SDS011;70222;49.204;-122.940;2023-08-30T03:31:16;15.07;;;9.63;;
80707;SDS011;70222;49.204;-122.940;2023-08-30T03:37:05;15.18;;;10.35;;
80707;SDS011;70222;49.204;-122.940;2023-08-30T03:39:31;22.63;;;14.25;;
80707;SDS011;70222;49.204;-122.940;2023-08-30T03:41:57;19.30;;;12.63;;
80707;SDS011;70222;49.204;-122.940;2023-08-30T03:44:23;18.55;;;11.52;;
80707;SDS011;70222;49.204;-122.940;2023-08-30T03:46:49;19.38;;;11.25;;
80707;SDS011;70222;49.204;-122.940;2023-08-30T03:49:15;20.08;;;11.20;;
80707;SDS011;70222;49.204;-122.940;2023-08-30T03:51:41;17.02;;;10.23;;
80707;SDS011;70222;49.204;-122.940;2023-08-30T03:54:07;16.75;;;9.20;;
80707;SDS011;70222;49.204;-122.940;2023-08-30T03:56:38;12.40;;;8.18;;
80707;SDS011;70222;49.204;-122.940;2023-08-30T03:59:04;13.57;;;7.60;;
80707;SDS011;70222;49.204;-122.940;2023-08-30T04:01:30;11.93;;;7.57;;
80707;SDS011;70222;49.204;-122.940;2023-08-30T04:03:57;14.63;;;8.45;;
80707;SDS011;70222;49.204;-122.940;2023-08-30T04:06:23;15.00;;;9.38;;
80707;SDS011;70222;49.204;-122.940;2023-08-30T04:08:49;14.05;;;8.43;;
80707;SDS011;70222;49.204;-122.940;2023-08-30T04:11:15;14.38;;;7.90;;
80707;SDS011;70222;49.204;-122.940;2023-08-30T04:13:41;16.45;;;9.25;;
80707;SDS011;70222;49.204;-122.940;2023-08-30T04:16:07;16.60;;;9.60;;
80707;SDS011;70222;49.204;-122.940;2023-08-30T04:18:33;22.52;;;13.25;;
80707;SDS011;70222;49.204;-122.940;2023-08-30T04:20:59;25.48;;;14.15;;
80707;SDS011;70222;49.204;-122.940;2023-08-30T04:23:27;24.55;;;12.70;;
80707;SDS011;70222;49.204;-122.940;2023-08-30T04:25:54;24.15;;;13.50;;
80707;SDS011;70222;49.204;-122.940;2023-08-30T04:28:21;25.35;;;13.50;;
80707;SDS011;70222;49.204;-122.940;2023-08-30T04:30:47;25.08;;;13.75;;
80707;SDS011;70222;49.204;-122.940;2023-08-30T04:33:13;25.23;;;13.60;;
80707;SDS011;70222;49.204;-122.940;2023-08-30T04:35:39;26.23;;;13.55;;
80707;SDS011;70222;49.204;-122.940;2023-08-30T04:38:05;26.02;;;13.18;;
80707;SDS011;70222;49.204;-122.940;2023-08-30T04:40:31;25.38;;;13.45;;
80707;SDS011;70222;49.204;-122.940;2023-08-30T04:42:58;25.98;;;13.57;;
80707;SDS011;70222;49.204;-122.940;2023-08-30T04:45:24;23.83;;;11.90;;
80707;SDS011;70222;49.204;-122.940;2023-08-30T04:47:50;24.63;;;13.02;;
80707;SDS011;70222;49.204;-122.940;2023-08-30T04:50:18;23.58;;;12.88;;
80707;SDS011;70222;49.204;-122.940;2023-08-30T04:52:44;31.13;;;13.02;;
80707;SDS011;70222;49.204;-122.940;2023-08-30T04:58:35;27.83;;;14.27;;
80707;SDS011;70222;49.204;-122.940;2023-08-30T05:01:01;27.90;;;14.77;;
80707;SDS011;70222;49.204;-122.940;2023-08-30T05:03:28;23.85;;;12.60;;
80707;SDS011;70222;49.204;-122.940;2023-08-30T05:05:54;23.35;;;12.00;;
80707;SDS011;70222;49.204;-122.940;2023-08-30T05:08:20;29.85;;;14.98;;
80707;SDS011;70222;49.204;-122.940;2023-08-30T05:10:46;39.55;;;19.05;;
80707;SDS011;70222;49.204;-122.940;2023-08-30T05:13:15;31.70;;;14.63;;
80707;SDS011;70222;49.204;-122.940;2023-08-30T05:15:42;31.35;;;15.23;;
80707;SDS011;70222;49.204;-122.940;2023-08-30T05:18:08;32.78;;;17.00;;
80707;SDS011;70222;49.204;-122.940;2023-08-30T05:20:34;34.55;;;17.98;;
80707;SDS011;70222;49.204;-122.940;2023-08-30T05:23:00;21.08;;;12.02;;
80707;SDS011;70222;49.204;-122.940;2023-08-30T05:25:26;23.33;;;12.88;;
80707;SDS011;70222;49.204;-122.940;2023-08-30T05:27:52;22.45;;;12.18;;
80707;SDS011;70222;49.204;-122.940;2023-08-30T05:30:18;20.77;;;12.00;;
80707;SDS011;70222;49.204;-122.940;2023-08-30T05:32:44;19.10;;;11.80;;
80707;SDS011;70222;49.204;-122.940;2023-08-30T05:35:11;15.90;;;9.80;;
80707;SDS011;70222;49.204;-122.940;2023-08-30T05:37:37;17.65;;;9.70;;
80707;SDS011;70222;49.204;-122.940;2023-08-30T05:40:03;14.02;;;8.52;;
80707;SDS011;70222;49.204;-122.940;2023-08-30T05:42:30;16.15;;;8.90;;
80707;SDS011;70222;49.204;-122.940;2023-08-30T05:50:43;13.77;;;8.77;;
80707;SDS011;70222;49.204;-122.940;2023-08-30T05:55:36;14.95;;;9.43;;
80707;SDS011;70222;49.204;-122.940;2023-08-30T05:58:02;14.23;;;7.82;;
80707;SDS011;70222;49.204;-122.940;2023-08-30T06:00:28;12.98;;;7.95;;
80707;SDS011;70222;49.204;-122.940;2023-08-30T06:02:55;14.25;;;8.15;;
80707;SDS011;70222;49.204;-122.940;2023-08-30T06:05:21;13.85;;;8.77;;
80707;SDS011;70222;49.204;-122.940;2023-08-30T06:07:47;13.80;;;8.40;;
80707;SDS011;70222;49.204;-122.940;2023-08-30T06:10:13;14.00;;;8.95;;
80707;SDS011;70222;49.204;-122.940;2023-08-30T06:12:39;14.25;;;8.48;;
80707;SDS011;70222;49.204;-122.940;2023-08-30T06:15:05;16.05;;;9.65;;
80707;SDS011;70222;49.204;-122.940;2023-08-30T06:17:32;17.23;;;9.45;;
80707;SDS011;70222;49.204;-122.940;2023-08-30T06:19:58;14.45;;;9.15;;
80707;SDS011;70222;49.204;-122.940;2023-08-30T06:22:24;18.33;;;9.10;;
80707;SDS011;70222;49.204;-122.940;2023-08-30T06:24:50;17.25;;;9.52;;
80707;SDS011;70222;49.204;-122.940;2023-08-30T06:27:17;19.02;;;10.80;;
80707;SDS011;70222;49.204;-122.940;2023-08-30T06:29:43;22.33;;;11.48;;
80707;SDS011;70222;49.204;-122.940;2023-08-30T06:32:09;18.80;;;10.77;;
80707;SDS011;70222;49.204;-122.940;2023-08-30T06:34:35;19.08;;;10.55;;
80707;SDS011;70222;49.204;-122.940;2023-08-30T06:37:01;20.40;;;11.63;;
80707;SDS011;70222;49.204;-122.940;2023-08-30T06:39:34;19.90;;;11.80;;
80707;SDS011;70222;49.204;-122.940;2023-08-30T06:42:02;17.98;;;10.68;;
80707;SDS011;70222;49.204;-122.940;2023-08-30T06:44:33;19.42;;;11.32;;
80707;SDS011;70222;49.204;-122.940;2023-08-30T06:46:59;18.48;;;10.55;;
80707;SDS011;70222;49.204;-122.940;2023-08-30T06:49:25;18.38;;;10.57;;
80707;SDS011;70222;49.204;-122.940;2023-08-30T06:51:51;20.60;;;11.13;;
80707;SDS011;70222;49.204;-122.940;2023-08-30T06:54:17;27.90;;;14.65;;
80707;SDS011;70222;49.204;-122.940;2023-08-30T06:56:57;29.30;;;14.90;;
80707;SDS011;70222;49.204;-122.940;2023-08-30T06:59:23;23.38;;;13.45;;
80707;SDS011;70222;49.204;-122.940;2023-08-30T07:01:50;16.27;;;9.10;;
80707;SDS011;70222;49.204;-122.940;2023-08-30T07:04:16;14.98;;;9.77;;
80707;SDS011;70222;49.204;-122.940;2023-08-30T07:06:42;17.27;;;10.98;;
80707;SDS011;70222;49.204;-122.940;2023-08-30T07:09:09;15.75;;;8.95;;
80707;SDS011;70222;49.204;-122.940;2023-08-30T07:11:37;15.52;;;10.20;;
80707;SDS011;70222;49.204;-122.940;2023-08-30T07:16:29;17.48;;;10.65;;
80707;SDS011;70222;49.204;-122.940;2023-08-30T07:18:58;18.05;;;9.48;;
80707;SDS011;70222;49.204;-122.940;2023-08-30T07:21:24;19.35;;;9.70;;
80707;SDS011;70222;49.204;-122.940;2023-08-30T07:23:50;21.38;;;11.05;;
80707;SDS011;70222;49.204;-122.940;2023-08-30T07:26:16;18.50;;;9.82;;
80707;SDS011;70222;49.204;-122.940;2023-08-30T07:28:42;19.40;;;10.43;;
80707;SDS011;70222;49.204;-122.940;2023-08-30T07:31:08;21.08;;;11.00;;
80707;SDS011;70222;49.204;-122.940;2023-08-30T07:33:35;20.92;;;10.45;;
80707;SDS011;70222;49.204;-122.940;2023-08-30T07:36:01;22.20;;;11.65;;
80707;SDS011;70222;49.204;-122.940;2023-08-30T07:38:28;22.13;;;10.85;;
80707;SDS011;70222;49.204;-122.940;2023-08-30T07:40:54;21.95;;;11.30;;
80707;SDS011;70222;49.204;-122.940;2023-08-30T07:43:20;20.55;;;11.32;;
80707;SDS011;70222;49.204;-122.940;2023-08-30T07:45:46;21.48;;;10.73;;
80707;SDS011;70222;49.204;-122.940;2023-08-30T07:48:12;20.45;;;9.75;;
80707;SDS011;70222;49.204;-122.940;2023-08-30T07:50:39;22.13;;;11.45;;
80707;SDS011;70222;49.204;-122.940;2023-08-30T07:53:05;23.40;;;11.05;;
80707;SDS011;70222;49.204;-122.940;2023-08-30T07:55:31;20.75;;;10.20;;
80707;SDS011;70222;49.204;-122.940;2023-08-30T07:57:57;20.42;;;10.63;;
80707;SDS011;70222;49.204;-122.940;2023-08-30T08:00:23;24.13;;;11.05;;
80707;SDS011;70222;49.204;-122.940;2023-08-30T08:02:49;21.90;;;11.25;;
80707;SDS011;70222;49.204;-122.940;2023-08-30T08:05:15;26.88;;;11.23;;
80707;SDS011;70222;49.204;-122.940;2023-08-30T08:07:42;20.17;;;10.15;;
80707;SDS011;70222;49.204;-122.940;2023-08-30T08:10:08;22.80;;;11.52;;
80707;SDS011;70222;49.204;-122.940;2023-08-30T08:12:34;21.80;;;11.40;;
80707;SDS011;70222;49.204;-122.940;2023-08-30T08:15:01;26.48;;;11.60;;
80707;SDS011;70222;49.204;-122.940;2023-08-30T08:17:28;27.65;;;12.38;;
80707;SDS011;70222;49.204;-122.940;2023-08-30T08:19:54;22.73;;;11.48;;
80707;SDS011;70222;49.204;-122.940;2023-08-30T08:22:20;28.15;;;11.95;;
80707;SDS011;70222;49.204;-122.940;2023-08-30T08:24:48;26.13;;;12.63;;
80707;SDS011;70222;49.204;-122.940;2023-08-30T08:27:17;24.92;;;11.70;;
80707;SDS011;70222;49.204;-122.940;2023-08-30T08:29:43;25.10;;;11.85;;
80707;SDS011;70222;49.204;-122.940;2023-08-30T08:32:09;25.20;;;11.73;;
80707;SDS011;70222;49.204;-122.940;2023-08-30T08:34:35;23.92;;;11.13;;
80707;SDS011;70222;49.204;-122.940;2023-08-30T08:37:01;22.40;;;10.80;;
80707;SDS011;70222;49.204;-122.940;2023-08-30T08:39:27;22.17;;;11.90;;
80707;SDS011;70222;49.204;-122.940;2023-08-30T08:41:53;31.40;;;11.90;;
80707;SDS011;70222;49.204;-122.940;2023-08-30T08:44:19;24.90;;;10.98;;
80707;SDS011;70222;49.204;-122.940;2023-08-30T08:46:46;22.48;;;11.32;;
80707;SDS011;70222;49.204;-122.940;2023-08-30T08:49:14;22.55;;;11.65;;
80707;SDS011;70222;49.204;-122.940;2023-08-30T08:51:42;23.30;;;11.25;;
80707;SDS011;70222;49.204;-122.940;2023-08-30T08:54:09;24.17;;;10.73;;
80707;SDS011;70222;49.204;-122.940;2023-08-30T08:56:36;21.33;;;11.18;;
80707;SDS011;70222;49.204;-122.940;2023-08-30T08:59:03;23.92;;;11.43;;
80707;SDS011;70222;49.204;-122.940;2023-08-30T09:01:30;22.60;;;11.73;;
80707;SDS011;70222;49.204;-122.940;2023-08-30T09:03:59;25.80;;;11.07;;
80707;SDS011;70222;49.204;-122.940;2023-08-30T09:06:25;22.33;;;12.05;;
80707;SDS011;70222;49.204;-122.940;2023-08-30T09:08:51;21.58;;;10.95;;
80707;SDS011;70222;49.204;-122.940;2023-08-30T09:11:17;24.02;;;11.57;;
80707;SDS011;70222;49.204;-122.940;2023-08-30T09:13:44;25.90;;;13.18;;
80707;SDS011;70222;49.204;-122.940;2023-08-30T09:16:13;22.38;;;11.30;;
80707;SDS011;70222;49.204;-122.940;2023-08-30T09:18:43;20.30;;;11.85;;
80707;SDS011;70222;49.204;-122.940;2023-08-30T09:21:10;22.55;;;10.10;;
80707;SDS011;70222;49.204;-122.940;2023-08-30T09:23:37;23.23;;;12.98;;
80707;SDS011;70222;49.204;-122.940;2023-08-30T09:26:03;23.95;;;11.90;;
80707;SDS011;70222;49.204;-122.940;2023-08-30T09:28:30;28.20;;;13.43;;
80707;SDS011;70222;49.204;-122.940;2023-08-30T09:30:57;24.67;;;12.20;;
80707;SDS011;70222;49.204;-122.940;2023-08-30T09:33:30;21.35;;;11.18;;
80707;SDS011;70222;49.204;-122.940;2023-08-30T09:35:57;24.17;;;12.65;;
80707;SDS011;70222;49.204;-122.940;2023-08-30T09:38:24;20.92;;;11.10;;
80707;SDS011;70222;49.204;-122.940;2023-08-30T09:40:51;22.75;;;11.57;;
80707;SDS011;70222;49.204;-122.940;2023-08-30T09:43:20;23.08;;;12.45;;
80707;SDS011;70222;49.204;-122.940;2023-08-30T09:45:50;25.73;;;12.57;;
80707;SDS011;70222;49.204;-122.940;2023-08-30T09:48:20;24.55;;;11.95;;
80707;SDS011;70222;49.204;-122.940;2023-08-30T09:50:52;26.10;;;11.20;;
80707;SDS011;70222;49.204;-122.940;2023-08-30T09:53:23;22.85;;;11.48;;
80707;SDS011;70222;49.204;-122.940;2023-08-30T09:55:54;24.67;;;12.65;;
80707;SDS011;70222;49.204;-122.940;2023-08-30T09:58:23;21.17;;;11.02;;
80707;SDS011;70222;49.204;-122.940;2023-08-30T10:00:49;23.08;;;13.23;;
80707;SDS011;70222;49.204;-122.940;2023-08-30T10:03:15;24.70;;;11.20;;
80707;SDS011;70222;49.204;-122.940;2023-08-30T10:05:44;23.50;;;12.82;;
80707;SDS011;70222;49.204;-122.940;2023-08-30T10:08:12;33.10;;;16.58;;
80707;SDS011;70222;49.204;-122.940;2023-08-30T10:10:39;23.23;;;12.07;;
80707;SDS011;70222;49.204;-122.940;2023-08-30T10:13:06;26.92;;;13.40;;
80707;SDS011;70222;49.204;-122.940;2023-08-30T10:15:35;22.92;;;11.45;;
80707;SDS011;70222;49.204;-122.940;2023-08-30T10:18:06;26.33;;;13.48;;
80707;SDS011;70222;49.204;-122.940;2023-08-30T10:20:33;27.35;;;13.45;;
80707;SDS011;70222;49.204;-122.940;2023-08-30T10:22:59;27.80;;;11.48;;
80707;SDS011;70222;49.204;-122.940;2023-08-30T10:25:26;34.10;;;15.18;;
80707;SDS011;70222;49.204;-122.940;2023-08-30T10:27:54;33.78;;;14.30;;
80707;SDS011;70222;49.204;-122.940;2023-08-30T10:30:21;30.35;;;13.60;;
80707;SDS011;70222;49.204;-122.940;2023-08-30T10:32:47;25.98;;;13.00;;
80707;SDS011;70222;49.204;-122.940;2023-08-30T10:38:50;22.13;;;11.15;;
80707;SDS011;70222;49.204;-122.940;2023-08-30T10:41:20;26.90;;;11.80;;
80707;SDS011;70222;49.204;-122.940;2023-08-30T10:46:33;19.77;;;10.23;;
80707;SDS011;70222;49.204;-122.940;2023-08-30T10:49:08;25.60;;;12.55;;
80707;SDS011;70222;49.204;-122.940;2023-08-30T10:51:39;23.73;;;11.88;;
80707;SDS011;70222;49.204;-122.940;2023-08-30T10:54:12;27.40;;;14.20;;
80707;SDS011;70222;49.204;-122.940;2023-08-30T10:56:46;28.98;;;14.57;;
80707;SDS011;70222;49.204;-122.940;2023-08-30T10:59:17;28.13;;;14.35;;
80707;SDS011;70222;49.204;-122.940;2023-08-30T11:01:45;32.35;;;14.82;;
80707;SDS011;70222;49.204;-122.940;2023-08-30T11:04:15;29.35;;;15.05;;
80707;SDS011;70222;49.204;-122.940;2023-08-30T11:06:44;24.55;;;12.60;;
80707;SDS011;70222;49.204;-122.940;2023-08-30T11:09:21;25.60;;;12.90;;
80707;SDS011;70222;49.204;-122.940;2023-08-30T11:11:49;28.48;;;14.13;;
80707;SDS011;70222;49.204;-122.940;2023-08-30T11:14:16;28.95;;;16.25;;
80707;SDS011;70222;49.204;-122.940;2023-08-30T11:16:43;45.85;;;17.33;;
80707;SDS011;70222;49.204;-122.940;2023-08-30T11:21:37;30.38;;;13.50;;
80707;SDS011;70222;49.204;-122.940;2023-08-30T11:24:08;27.92;;;13.80;;
80707;SDS011;70222;49.204;-122.940;2023-08-30T11:26:34;21.55;;;12.77;;
80707;SDS011;70222;49.204;-122.940;2023-08-30T11:29:04;21.67;;;11.20;;
80707;SDS011;70222;49.204;-122.940;2023-08-30T11:31:33;21.58;;;10.40;;
80707;SDS011;70222;49.204;-122.940;2023-08-30T11:34:00;19.75;;;10.75;;
80707;SDS011;70222;49.204;-122.940;2023-08-30T11:36:28;19.02;;;11.05;;
80707;SDS011;70222;49.204;-122.940;2023-08-30T11:38:55;25.35;;;11.30;;
80707;SDS011;70222;49.204;-122.940;2023-08-30T11:41:22;17.30;;;9.85;;
80707;SDS011;70222;49.204;-122.940;2023-08-30T11:43:49;23.80;;;11.20;;
80707;SDS011;70222;49.204;-122.940;2023-08-30T11:46:19;19.98;;;12.43;;
80707;SDS011;70222;49.204;-122.940;2023-08-30T11:48:47;20.05;;;10.45;;
80707;SDS011;70222;49.204;-122.940;2023-08-30T11:51:13;19.65;;;9.95;;
80707;SDS011;70222;49.204;-122.940;2023-08-30T11:53:40;19.33;;;10.20;;
80707;SDS011;70222;49.204;-122.940;2023-08-30T11:56:06;18.63;;;9.50;;
80707;SDS011;70222;49.204;-122.940;2023-08-30T11:58:33;21.55;;;10.88;;
80707;SDS011;70222;49.204;-122.940;2023-08-30T12:01:00;23.63;;;12.52;;
80707;SDS011;70222;49.204;-122.940;2023-08-30T12:03:27;17.80;;;11.57;;
80707;SDS011;70222;49.204;-122.940;2023-08-30T12:05:54;19.67;;;11.18;;
80707;SDS011;70222;49.204;-122.940;2023-08-30T12:08:20;23.92;;;11.80;;
80707;SDS011;70222;49.204;-122.940;2023-08-30T12:10:50;19.33;;;10.98;;
80707;SDS011;70222;49.204;-122.940;2023-08-30T12:13:34;20.88;;;10.98;;
80707;SDS011;70222;49.204;-122.940;2023-08-30T12:16:01;18.70;;;11.18;;
80707;SDS011;70222;49.204;-122.940;2023-08-30T12:18:29;18.00;;;9.30;;
80707;SDS011;70222;49.204;-122.940;2023-08-30T12:21:01;20.38;;;11.90;;
80707;SDS011;70222;49.204;-122.940;2023-08-30T12:23:29;18.13;;;9.63;;
80707;SDS011;70222;49.204;-122.940;2023-08-30T12:25:57;21.42;;;11.80;;
80707;SDS011;70222;49.204;-122.940;2023-08-30T12:28:27;20.80;;;12.18;;
80707;SDS011;70222;49.204;-122.940;2023-08-30T12:30:55;21.38;;;12.30;;
80707;SDS011;70222;49.204;-122.940;2023-08-30T12:35:47;25.48;;;13.95;;
80707;SDS011;70222;49.204;-122.940;2023-08-30T12:38:13;25.73;;;14.00;;
80707;SDS011;70222;49.204;-122.940;2023-08-30T12:40:46;26.42;;;13.38;;
80707;SDS011;70222;49.204;-122.940;2023-08-30T12:43:13;22.45;;;14.30;;
80707;SDS011;70222;49.204;-122.940;2023-08-30T12:45:40;26.02;;;13.23;;
80707;SDS011;70222;49.204;-122.940;2023-08-30T12:48:07;25.15;;;14.70;;
80707;SDS011;70222;49.204;-122.940;2023-08-30T12:53:00;26.50;;;13.35;;
80707;SDS011;70222;49.204;-122.940;2023-08-30T12:57:53;28.75;;;15.13;;
80707;SDS011;70222;49.204;-122.940;2023-08-30T13:00:19;30.17;;;15.25;;
80707;SDS011;70222;49.204;-122.940;2023-08-30T13:02:45;23.92;;;13.30;;
80707;SDS011;70222;49.204;-122.940;2023-08-30T13:05:11;27.80;;;14.80;;
80707;SDS011;70222;49.204;-122.940;2023-08-30T13:07:37;27.60;;;14.15;;
80707;SDS011;70222;49.204;-122.940;2023-08-30T13:10:05;23.77;;;12.82;;
80707;SDS011;70222;49.204;-122.940;2023-08-30T13:12:32;24.33;;;14.27;;
80707;SDS011;70222;49.204;-122.940;2023-08-30T13:14:58;25.90;;;13.95;;
80707;SDS011;70222;49.204;-122.940;2023-08-30T13:17:24;25.88;;;14.27;;
80707;SDS011;70222;49.204;-122.940;2023-08-30T13:19:50;21.85;;;12.38;;
80707;SDS011;70222;49.204;-122.940;2023-08-30T13:22:16;24.38;;;13.32;;
80707;SDS011;70222;49.204;-122.940;2023-08-30T13:24:45;27.02;;;13.05;;
80707;SDS011;70222;49.204;-122.940;2023-08-30T13:27:12;22.70;;;11.82;;
80707;SDS011;70222;49.204;-122.940;2023-08-30T13:29:38;24.27;;;13.77;;
80707;SDS011;70222;49.204;-122.940;2023-08-30T13:32:05;26.80;;;12.85;;
80707;SDS011;70222;49.204;-122.940;2023-08-30T13:34:31;25.40;;;13.43;;
80707;SDS011;70222;49.204;-122.940;2023-08-30T13:36:57;23.50;;;12.95;;
80707;SDS011;70222;49.204;-122.940;2023-08-30T13:39:23;24.38;;;12.05;;
80707;SDS011;70222;49.204;-122.940;2023-08-30T13:41:49;21.42;;;12.80;;
80707;SDS011;70222;49.204;-122.940;2023-08-30T13:44:15;22.77;;;12.30;;
80707;SDS011;70222;49.204;-122.940;2023-08-30T13:46:43;23.02;;;12.43;;
80707;SDS011;70222;49.204;-122.940;2023-08-30T13:49:09;24.92;;;13.80;;
80707;SDS011;70222;49.204;-122.940;2023-08-30T13:51:36;23.45;;;13.48;;
80707;SDS011;70222;49.204;-122.940;2023-08-30T13:54:02;20.83;;;12.43;;
80707;SDS011;70222;49.204;-122.940;2023-08-30T13:56:28;20.65;;;11.23;;
80707;SDS011;70222;49.204;-122.940;2023-08-30T13:58:55;22.67;;;13.35;;
80707;SDS011;70222;49.204;-122.940;2023-08-30T14:01:22;20.50;;;11.63;;
80707;SDS011;70222;49.204;-122.940;2023-08-30T14:03:48;24.02;;;12.35;;
80707;SDS011;70222;49.204;-122.940;2023-08-30T14:06:14;24.50;;;12.60;;
80707;SDS011;70222;49.204;-122.940;2023-08-30T14:08:40;22.10;;;12.68;;
80707;SDS011;70222;49.204;-122.940;2023-08-30T14:11:07;19.05;;;11.63;;
80707;SDS011;70222;49.204;-122.940;2023-08-30T14:13:33;18.08;;;11.63;;
80707;SDS011;70222;49.204;-122.940;2023-08-30T14:15:59;21.30;;;11.48;;
80707;SDS011;70222;49.204;-122.940;2023-08-30T14:18:26;17.08;;;9.88;;
80707;SDS011;70222;49.204;-122.940;2023-08-30T14:20:56;23.02;;;10.85;;
80707;SDS011;70222;49.204;-122.940;2023-08-30T14:23:25;16.38;;;10.07;;
80707;SDS011;70222;49.204;-122.940;2023-08-30T14:25:55;18.58;;;10.30;;
80707;SDS011;70222;49.204;-122.940;2023-08-30T14:28:23;15.73;;;9.80;;
80707;SDS011;70222;49.204;-122.940;2023-08-30T14:33:15;16.27;;;9.32;;
80707;SDS011;70222;49.204;-122.940;2023-08-30T14:35:42;17.35;;;9.05;;
80707;SDS011;70222;49.204;-122.940;2023-08-30T14:38:08;19.23;;;10.90;;
80707;SDS011;70222;49.204;-122.940;2023-08-30T14:40:34;15.85;;;9.75;;